sensor_id;sensor_type;location;lat;lon;timestamp;temperature;humidity
2407;DHT22;37709;53.480;9.688;2022-07-22T00:02:12;17.50;99.90
2407;DHT22;37709;53.480;9.688;2022-07-22T00:04:40;17.30;99.90
2407;DHT22;37709;53.480;9.688;2022-07-22T00:07:07;17.20;99.90
2407;DHT22;37709;53.480;9.688;2022-07-22T00:09:34;17.00;99.90
2407;DHT22;37709;53.480;9.688;2022-07-22T00:12:02;16.90;99.90
2407;DHT22;37709;53.480;9.688;2022-07-22T00:14:30;16.90;99.90
2407;DHT22;37709;53.480;9.688;2022-07-22T00:16:58;16.90;99.90
2407;DHT22;37709;53.480;9.688;2022-07-22T00:19:26;16.80;99.90
2407;DHT22;37709;53.480;9.688;2022-07-22T00:21:53;16.80;99.90
2407;DHT22;37709;53.480;9.688;2022-07-22T00:24:20;16.70;99.90
2407;DHT22;37709;53.480;9.688;2022-07-22T00:26:48;16.60;99.90
2407;DHT22;37709;53.480;9.688;2022-07-22T00:29:15;16.60;99.90
2407;DHT22;37709;53.480;9.688;2022-07-22T00:31:43;16.50;99.90
2407;DHT22;37709;53.480;9.688;2022-07-22T00:34:10;16.50;99.90
2407;DHT22;37709;53.480;9.688;2022-07-22T00:36:38;16.40;99.90
2407;DHT22;37709;53.480;9.688;2022-07-22T00:39:05;16.40;99.90
2407;DHT22;37709;53.480;9.688;2022-07-22T00:41:33;16.30;99.90
2407;DHT22;37709;53.480;9.688;2022-07-22T00:44:06;16.30;99.90
2407;DHT22;37709;53.480;9.688;2022-07-22T00:46:35;16.30;99.90
2407;DHT22;37709;53.480;9.688;2022-07-22T00:49:06;16.10;99.90
2407;DHT22;37709;53.480;9.688;2022-07-22T00:51:34;16.10;99.90
2407;DHT22;37709;53.480;9.688;2022-07-22T00:54:03;16.10;99.90
2407;DHT22;37709;53.480;9.688;2022-07-22T00:56:31;16.10;99.90
2407;DHT22;37709;53.480;9.688;2022-07-22T00:59:01;16.10;99.90
2407;DHT22;37709;53.480;9.688;2022-07-22T01:01:29;16.00;99.90
2407;DHT22;37709;53.480;9.688;2022-07-22T01:03:57;16.00;99.90
2407;DHT22;37709;53.480;9.688;2022-07-22T01:06:29;16.00;99.90
2407;DHT22;37709;53.480;9.688;2022-07-22T01:08:57;16.00;99.90
2407;DHT22;37709;53.480;9.688;2022-07-22T01:11:26;16.10;99.90
2407;DHT22;37709;53.480;9.688;2022-07-22T01:13:55;15.90;99.90
2407;DHT22;37709;53.480;9.688;2022-07-22T01:16:23;15.90;99.90
2407;DHT22;37709;53.480;9.688;2022-07-22T01:18:51;15.90;99.90
2407;DHT22;37709;53.480;9.688;2022-07-22T01:21:19;15.80;99.90
2407;DHT22;37709;53.480;9.688;2022-07-22T01:23:47;15.80;99.90
2407;DHT22;37709;53.480;9.688;2022-07-22T01:26:16;15.80;99.90
2407;DHT22;37709;53.480;9.688;2022-07-22T01:28:45;15.80;99.90
2407;DHT22;37709;53.480;9.688;2022-07-22T01:31:12;15.80;99.90
2407;DHT22;37709;53.480;9.688;2022-07-22T01:33:41;15.70;99.90
2407;DHT22;37709;53.480;9.688;2022-07-22T01:36:09;15.70;99.90
2407;DHT22;37709;53.480;9.688;2022-07-22T01:38:37;15.70;99.90
2407;DHT22;37709;53.480;9.688;2022-07-22T01:41:04;15.70;99.90
2407;DHT22;37709;53.480;9.688;2022-07-22T01:43:32;15.70;99.90
2407;DHT22;37709;53.480;9.688;2022-07-22T01:46:00;15.70;99.90
2407;DHT22;37709;53.480;9.688;2022-07-22T01:48:30;15.60;99.90
2407;DHT22;37709;53.480;9.688;2022-07-22T01:50:58;15.60;99.90
2407;DHT22;37709;53.480;9.688;2022-07-22T01:53:26;15.60;99.90
2407;DHT22;37709;53.480;9.688;2022-07-22T01:55:54;15.60;99.90
2407;DHT22;37709;53.480;9.688;2022-07-22T01:58:22;15.60;99.90
2407;DHT22;37709;53.480;9.688;2022-07-22T02:00:50;15.50;99.90
2407;DHT22;37709;53.480;9.688;2022-07-22T02:03:20;15.50;99.90
2407;DHT22;37709;53.480;9.688;2022-07-22T02:05:47;15.40;99.90
2407;DHT22;37709;53.480;9.688;2022-07-22T02:08:22;15.40;99.90
2407;DHT22;37709;53.480;9.688;2022-07-22T02:11:08;15.30;99.90
2407;DHT22;37709;53.480;9.688;2022-07-22T02:13:45;15.30;99.90
2407;DHT22;37709;53.480;9.688;2022-07-22T02:16:13;15.30;99.90
2407;DHT22;37709;53.480;9.688;2022-07-22T02:18:47;15.20;99.90
2407;DHT22;37709;53.480;9.688;2022-07-22T02:21:15;15.20;99.90
2407;DHT22;37709;53.480;9.688;2022-07-22T02:23:42;15.30;99.90
2407;DHT22;37709;53.480;9.688;2022-07-22T02:26:10;15.30;99.90
2407;DHT22;37709;53.480;9.688;2022-07-22T02:28:41;15.30;99.90
2407;DHT22;37709;53.480;9.688;2022-07-22T02:31:09;15.20;99.90
2407;DHT22;37709;53.480;9.688;2022-07-22T02:33:38;15.20;99.90
2407;DHT22;37709;53.480;9.688;2022-07-22T02:36:06;15.20;99.90
2407;DHT22;37709;53.480;9.688;2022-07-22T02:38:35;15.20;99.90
2407;DHT22;37709;53.480;9.688;2022-07-22T02:41:02;15.20;99.90
2407;DHT22;37709;53.480;9.688;2022-07-22T02:43:32;15.20;99.90
2407;DHT22;37709;53.480;9.688;2022-07-22T02:45:59;15.20;99.90
2407;DHT22;37709;53.480;9.688;2022-07-22T02:48:27;15.30;99.90
2407;DHT22;37709;53.480;9.688;2022-07-22T02:50:56;15.30;99.90
2407;DHT22;37709;53.480;9.688;2022-07-22T02:53:26;15.20;99.90
2407;DHT22;37709;53.480;9.688;2022-07-22T02:55:54;15.20;99.90
2407;DHT22;37709;53.480;9.688;2022-07-22T02:58:21;15.20;99.90
2407;DHT22;37709;53.480;9.688;2022-07-22T03:00:50;15.20;99.90
2407;DHT22;37709;53.480;9.688;2022-07-22T03:03:17;15.20;99.90
2407;DHT22;37709;53.480;9.688;2022-07-22T03:05:44;15.20;99.90
2407;DHT22;37709;53.480;9.688;2022-07-22T03:08:20;15.20;99.90
2407;DHT22;37709;53.480;9.688;2022-07-22T03:10:49;15.10;99.90
2407;DHT22;37709;53.480;9.688;2022-07-22T03:13:16;15.10;99.90
2407;DHT22;37709;53.480;9.688;2022-07-22T03:15:44;15.10;99.90
2407;DHT22;37709;53.480;9.688;2022-07-22T03:18:12;15.10;99.90
2407;DHT22;37709;53.480;9.688;2022-07-22T03:20:41;15.20;99.90
2407;DHT22;37709;53.480;9.688;2022-07-22T03:23:08;15.10;99.90
2407;DHT22;37709;53.480;9.688;2022-07-22T03:25:37;15.10;99.90
2407;DHT22;37709;53.480;9.688;2022-07-22T03:28:06;15.20;99.90
2407;DHT22;37709;53.480;9.688;2022-07-22T03:30:35;15.30;99.90
2407;DHT22;37709;53.480;9.688;2022-07-22T03:33:04;15.30;99.90
2407;DHT22;37709;53.480;9.688;2022-07-22T03:35:36;15.30;99.90
2407;DHT22;37709;53.480;9.688;2022-07-22T03:38:04;15.30;99.90
2407;DHT22;37709;53.480;9.688;2022-07-22T03:40:31;15.30;99.90
2407;DHT22;37709;53.480;9.688;2022-07-22T03:43:00;15.40;99.90
2407;DHT22;37709;53.480;9.688;2022-07-22T03:45:27;15.40;99.90
2407;DHT22;37709;53.480;9.688;2022-07-22T03:47:56;15.40;99.90
2407;DHT22;37709;53.480;9.688;2022-07-22T03:50:27;15.40;99.90
2407;DHT22;37709;53.480;9.688;2022-07-22T03:52:55;15.30;99.90
2407;DHT22;37709;53.480;9.688;2022-07-22T03:55:23;15.30;99.90
2407;DHT22;37709;53.480;9.688;2022-07-22T03:57:54;15.30;99.90
2407;DHT22;37709;53.480;9.688;2022-07-22T04:00:25;15.40;99.90
2407;DHT22;37709;53.480;9.688;2022-07-22T04:02:52;15.30;99.90
2407;DHT22;37709;53.480;9.688;2022-07-22T04:05:31;15.30;99.90
2407;DHT22;37709;53.480;9.688;2022-07-22T04:07:58;15.40;99.90
2407;DHT22;37709;53.480;9.688;2022-07-22T04:10:27;15.40;99.90
2407;DHT22;37709;53.480;9.688;2022-07-22T04:12:55;15.40;99.90
2407;DHT22;37709;53.480;9.688;2022-07-22T04:15:35;15.50;99.90
2407;DHT22;37709;53.480;9.688;2022-07-22T04:18:03;15.50;99.90
2407;DHT22;37709;53.480;9.688;2022-07-22T04:20:31;15.50;99.90
2407;DHT22;37709;53.480;9.688;2022-07-22T04:23:24;15.60;99.90
2407;DHT22;37709;53.480;9.688;2022-07-22T04:26:01;15.50;99.90
2407;DHT22;37709;53.480;9.688;2022-07-22T04:28:29;15.50;99.90
2407;DHT22;37709;53.480;9.688;2022-07-22T04:30:59;15.50;99.90
2407;DHT22;37709;53.480;9.688;2022-07-22T04:33:26;15.50;99.90
2407;DHT22;37709;53.480;9.688;2022-07-22T04:35:54;15.50;99.90
2407;DHT22;37709;53.480;9.688;2022-07-22T04:38:22;15.50;99.90
2407;DHT22;37709;53.480;9.688;2022-07-22T04:40:56;15.50;99.90
2407;DHT22;37709;53.480;9.688;2022-07-22T04:43:25;15.50;99.90
2407;DHT22;37709;53.480;9.688;2022-07-22T04:45:52;15.50;99.90
2407;DHT22;37709;53.480;9.688;2022-07-22T04:48:20;15.60;99.90
2407;DHT22;37709;53.480;9.688;2022-07-22T04:50:49;15.60;99.90
2407;DHT22;37709;53.480;9.688;2022-07-22T04:53:17;15.60;99.90
2407;DHT22;37709;53.480;9.688;2022-07-22T04:55:44;15.60;99.90
2407;DHT22;37709;53.480;9.688;2022-07-22T04:58:11;15.60;99.90
2407;DHT22;37709;53.480;9.688;2022-07-22T05:00:45;15.50;99.90
2407;DHT22;37709;53.480;9.688;2022-07-22T05:03:14;15.50;99.90
2407;DHT22;37709;53.480;9.688;2022-07-22T05:05:42;15.60;99.90
2407;DHT22;37709;53.480;9.688;2022-07-22T05:08:11;15.60;99.90
2407;DHT22;37709;53.480;9.688;2022-07-22T05:11:07;15.50;99.90
2407;DHT22;37709;53.480;9.688;2022-07-22T05:13:35;15.60;99.90
2407;DHT22;37709;53.480;9.688;2022-07-22T05:16:04;15.60;99.90
2407;DHT22;37709;53.480;9.688;2022-07-22T05:18:34;15.70;99.90
2407;DHT22;37709;53.480;9.688;2022-07-22T05:21:03;15.80;99.90
2407;DHT22;37709;53.480;9.688;2022-07-22T05:23:31;15.90;99.90
2407;DHT22;37709;53.480;9.688;2022-07-22T05:26:00;16.00;99.90
2407;DHT22;37709;53.480;9.688;2022-07-22T05:28:28;16.00;99.90
2407;DHT22;37709;53.480;9.688;2022-07-22T05:30:56;16.00;99.90
2407;DHT22;37709;53.480;9.688;2022-07-22T05:33:27;16.00;99.90
2407;DHT22;37709;53.480;9.688;2022-07-22T05:36:17;16.10;99.90
2407;DHT22;37709;53.480;9.688;2022-07-22T05:38:47;16.30;99.90
2407;DHT22;37709;53.480;9.688;2022-07-22T05:41:15;16.40;99.90
2407;DHT22;37709;53.480;9.688;2022-07-22T05:43:43;16.60;99.90
2407;DHT22;37709;53.480;9.688;2022-07-22T05:46:10;16.60;99.90
2407;DHT22;37709;53.480;9.688;2022-07-22T05:48:38;16.70;99.90
2407;DHT22;37709;53.480;9.688;2022-07-22T05:51:11;16.70;99.90
2407;DHT22;37709;53.480;9.688;2022-07-22T05:53:41;16.60;99.90
2407;DHT22;37709;53.480;9.688;2022-07-22T05:56:09;16.50;99.90
2407;DHT22;37709;53.480;9.688;2022-07-22T05:58:39;16.60;99.90
2407;DHT22;37709;53.480;9.688;2022-07-22T06:01:08;16.70;99.90
2407;DHT22;37709;53.480;9.688;2022-07-22T06:03:35;16.80;99.90
2407;DHT22;37709;53.480;9.688;2022-07-22T06:06:04;16.90;99.90
2407;DHT22;37709;53.480;9.688;2022-07-22T06:08:37;17.00;99.90
2407;DHT22;37709;53.480;9.688;2022-07-22T06:11:05;17.10;99.90
2407;DHT22;37709;53.480;9.688;2022-07-22T06:13:33;17.30;99.90
2407;DHT22;37709;53.480;9.688;2022-07-22T06:16:06;18.00;99.90
2407;DHT22;37709;53.480;9.688;2022-07-22T06:18:40;18.50;99.90
2407;DHT22;37709;53.480;9.688;2022-07-22T06:21:07;18.50;99.90
2407;DHT22;37709;53.480;9.688;2022-07-22T06:23:37;18.30;99.90
2407;DHT22;37709;53.480;9.688;2022-07-22T06:26:05;18.10;99.90
2407;DHT22;37709;53.480;9.688;2022-07-22T06:28:34;17.90;99.90
2407;DHT22;37709;53.480;9.688;2022-07-22T06:31:03;17.80;99.90
2407;DHT22;37709;53.480;9.688;2022-07-22T06:33:30;17.70;99.90
2407;DHT22;37709;53.480;9.688;2022-07-22T06:36:00;17.60;99.90
2407;DHT22;37709;53.480;9.688;2022-07-22T06:38:30;17.50;99.90
2407;DHT22;37709;53.480;9.688;2022-07-22T06:41:19;17.80;99.90
2407;DHT22;37709;53.480;9.688;2022-07-22T06:44:03;18.00;99.90
2407;DHT22;37709;53.480;9.688;2022-07-22T06:46:52;18.20;99.90
2407;DHT22;37709;53.480;9.688;2022-07-22T06:49:21;18.10;99.90
2407;DHT22;37709;53.480;9.688;2022-07-22T06:51:52;18.10;99.90
2407;DHT22;37709;53.480;9.688;2022-07-22T06:54:19;18.20;99.90
2407;DHT22;37709;53.480;9.688;2022-07-22T06:56:49;18.30;99.90
2407;DHT22;37709;53.480;9.688;2022-07-22T06:59:21;18.40;99.90
2407;DHT22;37709;53.480;9.688;2022-07-22T07:01:49;18.40;99.90
2407;DHT22;37709;53.480;9.688;2022-07-22T07:04:18;18.40;99.90
2407;DHT22;37709;53.480;9.688;2022-07-22T07:06:46;18.40;99.90
2407;DHT22;37709;53.480;9.688;2022-07-22T07:09:17;18.50;99.90
2407;DHT22;37709;53.480;9.688;2022-07-22T07:11:56;18.50;99.90
2407;DHT22;37709;53.480;9.688;2022-07-22T07:14:43;18.60;99.90
2407;DHT22;37709;53.480;9.688;2022-07-22T07:17:30;18.60;99.90
2407;DHT22;37709;53.480;9.688;2022-07-22T07:19:58;18.40;99.90
2407;DHT22;37709;53.480;9.688;2022-07-22T07:22:25;18.40;99.90
2407;DHT22;37709;53.480;9.688;2022-07-22T07:24:53;18.30;99.90
2407;DHT22;37709;53.480;9.688;2022-07-22T07:27:20;18.50;99.90
2407;DHT22;37709;53.480;9.688;2022-07-22T07:29:52;18.70;99.90
2407;DHT22;37709;53.480;9.688;2022-07-22T07:32:20;18.60;99.90
2407;DHT22;37709;53.480;9.688;2022-07-22T07:34:48;18.70;99.90
2407;DHT22;37709;53.480;9.688;2022-07-22T07:37:16;18.80;99.90
2407;DHT22;37709;53.480;9.688;2022-07-22T07:39:44;19.00;99.90
2407;DHT22;37709;53.480;9.688;2022-07-22T07:42:11;19.20;99.90
2407;DHT22;37709;53.480;9.688;2022-07-22T07:44:40;19.40;99.90
2407;DHT22;37709;53.480;9.688;2022-07-22T07:47:07;19.50;99.90
2407;DHT22;37709;53.480;9.688;2022-07-22T07:49:35;19.70;99.90
2407;DHT22;37709;53.480;9.688;2022-07-22T07:52:03;19.90;99.90
2407;DHT22;37709;53.480;9.688;2022-07-22T07:54:31;20.20;99.90
2407;DHT22;37709;53.480;9.688;2022-07-22T07:57:18;20.00;99.90
2407;DHT22;37709;53.480;9.688;2022-07-22T07:59:46;19.70;99.90
2407;DHT22;37709;53.480;9.688;2022-07-22T08:02:14;19.80;99.90
2407;DHT22;37709;53.480;9.688;2022-07-22T08:04:42;19.80;99.90
2407;DHT22;37709;53.480;9.688;2022-07-22T08:07:19;19.60;99.90
2407;DHT22;37709;53.480;9.688;2022-07-22T08:09:49;19.90;99.90
2407;DHT22;37709;53.480;9.688;2022-07-22T08:12:51;20.10;99.90
2407;DHT22;37709;53.480;9.688;2022-07-22T08:15:40;20.20;99.90
2407;DHT22;37709;53.480;9.688;2022-07-22T08:18:16;20.30;99.90
2407;DHT22;37709;53.480;9.688;2022-07-22T08:20:44;20.50;99.90
2407;DHT22;37709;53.480;9.688;2022-07-22T08:23:13;20.40;99.90
2407;DHT22;37709;53.480;9.688;2022-07-22T08:25:44;20.60;99.90
2407;DHT22;37709;53.480;9.688;2022-07-22T08:28:12;20.70;99.90
2407;DHT22;37709;53.480;9.688;2022-07-22T08:30:43;20.80;99.90
2407;DHT22;37709;53.480;9.688;2022-07-22T08:33:11;20.60;99.90
2407;DHT22;37709;53.480;9.688;2022-07-22T08:35:39;20.60;99.90
2407;DHT22;37709;53.480;9.688;2022-07-22T08:38:07;20.90;99.90
2407;DHT22;37709;53.480;9.688;2022-07-22T08:40:35;21.50;99.90
2407;DHT22;37709;53.480;9.688;2022-07-22T08:43:05;21.80;99.90
2407;DHT22;37709;53.480;9.688;2022-07-22T08:45:32;22.10;99.90
2407;DHT22;37709;53.480;9.688;2022-07-22T08:48:00;22.30;99.90
2407;DHT22;37709;53.480;9.688;2022-07-22T08:50:49;22.20;99.90
2407;DHT22;37709;53.480;9.688;2022-07-22T08:53:53;22.20;99.90
2407;DHT22;37709;53.480;9.688;2022-07-22T08:56:22;22.00;99.90
2407;DHT22;37709;53.480;9.688;2022-07-22T08:58:50;21.80;99.90
2407;DHT22;37709;53.480;9.688;2022-07-22T09:01:17;21.90;99.90
2407;DHT22;37709;53.480;9.688;2022-07-22T09:03:54;21.80;99.90
2407;DHT22;37709;53.480;9.688;2022-07-22T09:06:28;21.50;99.90
2407;DHT22;37709;53.480;9.688;2022-07-22T09:09:05;21.30;99.90
2407;DHT22;37709;53.480;9.688;2022-07-22T09:12:08;20.90;99.90
2407;DHT22;37709;53.480;9.688;2022-07-22T09:14:51;20.60;99.90
2407;DHT22;37709;53.480;9.688;2022-07-22T09:17:38;20.70;99.90
2407;DHT22;37709;53.480;9.688;2022-07-22T09:20:29;21.00;99.90
2407;DHT22;37709;53.480;9.688;2022-07-22T09:23:19;21.50;99.90
2407;DHT22;37709;53.480;9.688;2022-07-22T09:25:51;21.90;99.40
2407;DHT22;37709;53.480;9.688;2022-07-22T09:28:24;21.90;99.20
2407;DHT22;37709;53.480;9.688;2022-07-22T09:31:30;21.60;99.60
2407;DHT22;37709;53.480;9.688;2022-07-22T09:34:31;21.30;99.60
2407;DHT22;37709;53.480;9.688;2022-07-22T09:37:12;21.30;99.90
2407;DHT22;37709;53.480;9.688;2022-07-22T09:39:41;21.50;99.90
2407;DHT22;37709;53.480;9.688;2022-07-22T09:42:09;21.80;99.10
2407;DHT22;37709;53.480;9.688;2022-07-22T09:44:37;22.30;99.00
2407;DHT22;37709;53.480;9.688;2022-07-22T09:47:28;22.80;97.50
2407;DHT22;37709;53.480;9.688;2022-07-22T09:50:32;23.70;97.40
2407;DHT22;37709;53.480;9.688;2022-07-22T09:53:16;24.40;95.50
2407;DHT22;37709;53.480;9.688;2022-07-22T09:55:49;24.00;94.90
2407;DHT22;37709;53.480;9.688;2022-07-22T09:58:16;23.50;96.00
2407;DHT22;37709;53.480;9.688;2022-07-22T10:00:46;23.20;96.70
2407;DHT22;37709;53.480;9.688;2022-07-22T10:03:26;22.60;96.20
2407;DHT22;37709;53.480;9.688;2022-07-22T10:05:55;22.40;97.10
2407;DHT22;37709;53.480;9.688;2022-07-22T10:08:25;22.70;96.40
2407;DHT22;37709;53.480;9.688;2022-07-22T10:10:59;23.20;96.30
2407;DHT22;37709;53.480;9.688;2022-07-22T10:13:29;23.50;95.20
2407;DHT22;37709;53.480;9.688;2022-07-22T10:15:58;23.60;95.40
2407;DHT22;37709;53.480;9.688;2022-07-22T10:18:28;23.50;95.40
2407;DHT22;37709;53.480;9.688;2022-07-22T10:21:09;23.20;95.00
2407;DHT22;37709;53.480;9.688;2022-07-22T10:24:08;23.10;95.00
2407;DHT22;37709;53.480;9.688;2022-07-22T10:29:41;23.40;94.90
2407;DHT22;37709;53.480;9.688;2022-07-22T10:40:16;23.80;93.60
2407;DHT22;37709;53.480;9.688;2022-07-22T10:45:35;24.70;91.80
2407;DHT22;37709;53.480;9.688;2022-07-22T10:48:04;27.00;87.20
2407;DHT22;37709;53.480;9.688;2022-07-22T10:53:10;29.20;77.60
2407;DHT22;37709;53.480;9.688;2022-07-22T10:56:01;28.30;74.70
2407;DHT22;37709;53.480;9.688;2022-07-22T11:01:08;27.60;77.20
2407;DHT22;37709;53.480;9.688;2022-07-22T11:03:37;27.00;76.80
2407;DHT22;37709;53.480;9.688;2022-07-22T11:08:52;25.70;80.90
2407;DHT22;37709;53.480;9.688;2022-07-22T11:11:38;25.20;82.10
2407;DHT22;37709;53.480;9.688;2022-07-22T11:14:34;24.90;82.60
2407;DHT22;37709;53.480;9.688;2022-07-22T11:17:08;24.20;83.40
2407;DHT22;37709;53.480;9.688;2022-07-22T11:19:37;24.00;85.10
2407;DHT22;37709;53.480;9.688;2022-07-22T11:22:07;23.90;86.10
2407;DHT22;37709;53.480;9.688;2022-07-22T11:24:36;24.10;85.70
2407;DHT22;37709;53.480;9.688;2022-07-22T11:27:04;23.90;85.30
2407;DHT22;37709;53.480;9.688;2022-07-22T11:29:38;23.70;86.80
2407;DHT22;37709;53.480;9.688;2022-07-22T11:32:13;23.60;88.30
2407;DHT22;37709;53.480;9.688;2022-07-22T11:34:44;23.60;90.30
2407;DHT22;37709;53.480;9.688;2022-07-22T11:37:20;23.70;90.30
2407;DHT22;37709;53.480;9.688;2022-07-22T11:40:00;23.50;90.00
2407;DHT22;37709;53.480;9.688;2022-07-22T11:42:28;23.20;91.00
2407;DHT22;37709;53.480;9.688;2022-07-22T11:44:56;23.10;90.70
2407;DHT22;37709;53.480;9.688;2022-07-22T11:47:23;23.30;90.90
2407;DHT22;37709;53.480;9.688;2022-07-22T11:49:50;23.30;91.00
2407;DHT22;37709;53.480;9.688;2022-07-22T11:52:19;23.30;91.10
2407;DHT22;37709;53.480;9.688;2022-07-22T11:54:46;23.50;90.80
2407;DHT22;37709;53.480;9.688;2022-07-22T11:57:14;23.80;90.10
2407;DHT22;37709;53.480;9.688;2022-07-22T11:59:42;24.20;89.40
2407;DHT22;37709;53.480;9.688;2022-07-22T12:02:10;24.40;89.30
2407;DHT22;37709;53.480;9.688;2022-07-22T12:04:42;24.10;90.60
2407;DHT22;37709;53.480;9.688;2022-07-22T12:07:11;23.70;90.90
2407;DHT22;37709;53.480;9.688;2022-07-22T12:09:39;23.30;91.80
2407;DHT22;37709;53.480;9.688;2022-07-22T12:12:09;22.80;91.10
2407;DHT22;37709;53.480;9.688;2022-07-22T12:14:45;22.70;91.10
2407;DHT22;37709;53.480;9.688;2022-07-22T12:17:15;22.90;91.50
2407;DHT22;37709;53.480;9.688;2022-07-22T12:19:43;23.60;91.30
2407;DHT22;37709;53.480;9.688;2022-07-22T12:22:21;24.10;90.50
2407;DHT22;37709;53.480;9.688;2022-07-22T12:24:59;24.50;90.70
2407;DHT22;37709;53.480;9.688;2022-07-22T12:27:27;24.50;88.90
2407;DHT22;37709;53.480;9.688;2022-07-22T12:29:55;24.40;88.50
2407;DHT22;37709;53.480;9.688;2022-07-22T12:34:58;24.70;89.40
2407;DHT22;37709;53.480;9.688;2022-07-22T12:37:33;25.10;87.20
2407;DHT22;37709;53.480;9.688;2022-07-22T12:40:10;25.80;85.00
2407;DHT22;37709;53.480;9.688;2022-07-22T12:42:59;26.20;84.60
2407;DHT22;37709;53.480;9.688;2022-07-22T12:45:28;25.80;84.30
2407;DHT22;37709;53.480;9.688;2022-07-22T12:48:04;25.10;86.80
2407;DHT22;37709;53.480;9.688;2022-07-22T12:50:38;24.50;87.20
2407;DHT22;37709;53.480;9.688;2022-07-22T12:53:16;23.80;88.60
2407;DHT22;37709;53.480;9.688;2022-07-22T12:55:47;23.30;89.60
2407;DHT22;37709;53.480;9.688;2022-07-22T12:58:16;23.40;89.50
2407;DHT22;37709;53.480;9.688;2022-07-22T13:00:48;23.80;88.50
2407;DHT22;37709;53.480;9.688;2022-07-22T13:03:16;24.60;87.70
2407;DHT22;37709;53.480;9.688;2022-07-22T13:05:48;25.40;86.80
2407;DHT22;37709;53.480;9.688;2022-07-22T13:08:16;26.00;83.60
2407;DHT22;37709;53.480;9.688;2022-07-22T13:10:44;27.00;81.20
2407;DHT22;37709;53.480;9.688;2022-07-22T13:13:12;28.20;79.20
2407;DHT22;37709;53.480;9.688;2022-07-22T13:15:40;28.00;78.10
2407;DHT22;37709;53.480;9.688;2022-07-22T13:18:07;27.70;79.50
2407;DHT22;37709;53.480;9.688;2022-07-22T13:20:35;27.10;79.30
2407;DHT22;37709;53.480;9.688;2022-07-22T13:23:02;26.50;80.90
2407;DHT22;37709;53.480;9.688;2022-07-22T13:25:30;25.70;82.90
2407;DHT22;37709;53.480;9.688;2022-07-22T13:28:00;25.30;84.30
2407;DHT22;37709;53.480;9.688;2022-07-22T13:30:27;25.10;85.90
2407;DHT22;37709;53.480;9.688;2022-07-22T13:32:55;25.00;85.20
2407;DHT22;37709;53.480;9.688;2022-07-22T13:35:23;24.90;86.60
2407;DHT22;37709;53.480;9.688;2022-07-22T13:37:50;24.80;85.70
2407;DHT22;37709;53.480;9.688;2022-07-22T13:40:18;24.80;85.50
2407;DHT22;37709;53.480;9.688;2022-07-22T13:42:45;24.60;85.20
2407;DHT22;37709;53.480;9.688;2022-07-22T13:45:13;24.50;85.90
2407;DHT22;37709;53.480;9.688;2022-07-22T13:47:42;24.60;84.60
2407;DHT22;37709;53.480;9.688;2022-07-22T13:50:09;24.50;86.20
2407;DHT22;37709;53.480;9.688;2022-07-22T13:52:37;24.70;86.30
2407;DHT22;37709;53.480;9.688;2022-07-22T13:55:05;24.60;83.50
2407;DHT22;37709;53.480;9.688;2022-07-22T13:57:34;24.80;81.80
2407;DHT22;37709;53.480;9.688;2022-07-22T14:00:04;25.40;81.30
2407;DHT22;37709;53.480;9.688;2022-07-22T14:02:43;25.30;81.30
2407;DHT22;37709;53.480;9.688;2022-07-22T14:05:12;25.20;80.10
2407;DHT22;37709;53.480;9.688;2022-07-22T14:07:40;25.20;81.30
2407;DHT22;37709;53.480;9.688;2022-07-22T14:10:08;25.10;81.50
2407;DHT22;37709;53.480;9.688;2022-07-22T14:12:36;25.10;81.30
2407;DHT22;37709;53.480;9.688;2022-07-22T14:15:03;25.30;80.00
2407;DHT22;37709;53.480;9.688;2022-07-22T14:17:32;25.40;81.30
2407;DHT22;37709;53.480;9.688;2022-07-22T14:20:00;25.10;80.70
2407;DHT22;37709;53.480;9.688;2022-07-22T14:22:29;25.00;80.10
2407;DHT22;37709;53.480;9.688;2022-07-22T14:24:57;25.30;80.90
2407;DHT22;37709;53.480;9.688;2022-07-22T14:27:25;25.40;80.80
2407;DHT22;37709;53.480;9.688;2022-07-22T14:29:53;25.50;81.30
2407;DHT22;37709;53.480;9.688;2022-07-22T14:32:20;25.10;81.60
2407;DHT22;37709;53.480;9.688;2022-07-22T14:34:48;24.50;81.90
2407;DHT22;37709;53.480;9.688;2022-07-22T14:37:16;24.40;84.50
2407;DHT22;37709;53.480;9.688;2022-07-22T14:39:44;24.40;83.40
2407;DHT22;37709;53.480;9.688;2022-07-22T14:42:11;24.40;84.70
2407;DHT22;37709;53.480;9.688;2022-07-22T14:44:38;24.30;83.40
2407;DHT22;37709;53.480;9.688;2022-07-22T14:47:06;24.30;84.10
2407;DHT22;37709;53.480;9.688;2022-07-22T14:49:33;24.40;82.90
2407;DHT22;37709;53.480;9.688;2022-07-22T14:52:01;24.50;82.50
2407;DHT22;37709;53.480;9.688;2022-07-22T14:54:28;24.60;81.90
2407;DHT22;37709;53.480;9.688;2022-07-22T14:56:56;24.80;81.90
2407;DHT22;37709;53.480;9.688;2022-07-22T14:59:23;24.90;80.90
2407;DHT22;37709;53.480;9.688;2022-07-22T15:01:52;25.00;81.80
2407;DHT22;37709;53.480;9.688;2022-07-22T15:04:20;24.90;82.10
2407;DHT22;37709;53.480;9.688;2022-07-22T15:06:48;24.80;81.30
2407;DHT22;37709;53.480;9.688;2022-07-22T15:09:15;24.60;81.80
2407;DHT22;37709;53.480;9.688;2022-07-22T15:11:43;24.30;81.40
2407;DHT22;37709;53.480;9.688;2022-07-22T15:14:10;24.20;82.10
2407;DHT22;37709;53.480;9.688;2022-07-22T15:16:38;24.10;82.20
2407;DHT22;37709;53.480;9.688;2022-07-22T15:19:06;24.10;82.80
2407;DHT22;37709;53.480;9.688;2022-07-22T15:21:34;24.00;84.20
2407;DHT22;37709;53.480;9.688;2022-07-22T15:24:02;24.00;83.60
2407;DHT22;37709;53.480;9.688;2022-07-22T15:26:30;23.90;83.20
2407;DHT22;37709;53.480;9.688;2022-07-22T15:28:57;24.00;83.20
2407;DHT22;37709;53.480;9.688;2022-07-22T15:31:25;24.10;83.90
2407;DHT22;37709;53.480;9.688;2022-07-22T15:33:54;24.00;83.10
2407;DHT22;37709;53.480;9.688;2022-07-22T15:36:22;23.90;83.30
2407;DHT22;37709;53.480;9.688;2022-07-22T15:38:50;23.60;83.90
2407;DHT22;37709;53.480;9.688;2022-07-22T15:41:24;23.40;88.00
2407;DHT22;37709;53.480;9.688;2022-07-22T15:43:51;23.20;87.10
2407;DHT22;37709;53.480;9.688;2022-07-22T15:46:19;23.20;86.20
2407;DHT22;37709;53.480;9.688;2022-07-22T15:48:46;23.00;85.90
2407;DHT22;37709;53.480;9.688;2022-07-22T15:51:15;22.80;85.90
2407;DHT22;37709;53.480;9.688;2022-07-22T15:53:42;22.50;87.10
2407;DHT22;37709;53.480;9.688;2022-07-22T15:56:10;22.40;86.50
2407;DHT22;37709;53.480;9.688;2022-07-22T15:58:38;22.30;87.00
2407;DHT22;37709;53.480;9.688;2022-07-22T16:01:44;22.40;87.20
2407;DHT22;37709;53.480;9.688;2022-07-22T16:04:13;22.30;87.30
2407;DHT22;37709;53.480;9.688;2022-07-22T16:06:41;22.30;87.00
2407;DHT22;37709;53.480;9.688;2022-07-22T16:09:09;22.40;87.40
2407;DHT22;37709;53.480;9.688;2022-07-22T16:11:36;22.40;87.70
2407;DHT22;37709;53.480;9.688;2022-07-22T16:14:04;22.40;87.90
2407;DHT22;37709;53.480;9.688;2022-07-22T16:16:31;22.20;87.90
2407;DHT22;37709;53.480;9.688;2022-07-22T16:18:59;22.00;89.20
2407;DHT22;37709;53.480;9.688;2022-07-22T16:21:27;21.90;89.50
2407;DHT22;37709;53.480;9.688;2022-07-22T16:23:55;21.80;90.10
2407;DHT22;37709;53.480;9.688;2022-07-22T16:26:22;21.70;90.10
2407;DHT22;37709;53.480;9.688;2022-07-22T16:29:16;21.70;90.20
2407;DHT22;37709;53.480;9.688;2022-07-22T16:31:43;21.60;90.60
2407;DHT22;37709;53.480;9.688;2022-07-22T16:34:11;21.60;90.50